createdAt,value
2022-09-21T00:00:26.182Z,67.24
2022-09-21T00:03:11.927Z,67.13
2022-09-21T00:06:12.311Z,67.17
2022-09-21T00:08:57.743Z,67.00
2022-09-21T00:11:42.949Z,67.07
2022-09-21T00:14:28.633Z,67.03
2022-09-21T00:17:13.950Z,67.02
2022-09-21T00:20:01.448Z,67.01
2022-09-21T00:22:47.849Z,67.17
2022-09-21T00:25:33.321Z,67.22
2022-09-21T00:28:18.504Z,67.25
2022-09-21T00:31:13.711Z,67.08
2022-09-21T00:34:00.346Z,67.10
2022-09-21T00:36:46.176Z,67.34
2022-09-21T00:39:31.687Z,67.14
2022-09-21T00:42:21.612Z,66.95
2022-09-21T00:45:07.412Z,67.05
2022-09-21T00:47:53.089Z,67.16
2022-09-21T00:50:45.763Z,67.18
2022-09-21T00:53:32.162Z,67.12
2022-09-21T00:56:17.766Z,67.26
2022-09-21T00:59:03.944Z,67.08
2022-09-21T01:01:49.862Z,67.31
2022-09-21T01:04:36.258Z,67.23
2022-09-21T01:07:27.620Z,67.25
2022-09-21T01:10:17.462Z,67.29
2022-09-21T01:13:27.693Z,67.09
2022-09-21T01:16:27.042Z,67.29
2022-09-21T01:19:30.932Z,67.12
2022-09-21T01:22:53.906Z,67.14
2022-09-21T01:26:11.579Z,67.09
2022-09-21T01:29:16.917Z,67.29
2022-09-21T01:32:08.428Z,67.14
2022-09-21T01:34:54.468Z,66.98
2022-09-21T01:37:48.021Z,67.24
2022-09-21T01:40:43.944Z,67.26
2022-09-21T01:43:46.890Z,67.05
2022-09-21T01:46:33.993Z,67.00
2022-09-21T01:49:36.334Z,67.29
2022-09-21T01:52:39.836Z,67.02
2022-09-21T01:55:39.434Z,66.99
2022-09-21T01:58:33.650Z,67.14
2022-09-21T02:01:23.135Z,67.07
2022-09-21T02:04:11.400Z,67.04
2022-09-21T02:06:56.897Z,66.99
2022-09-21T02:09:42.234Z,67.06
2022-09-21T02:12:27.391Z,67.18
2022-09-21T02:15:13.077Z,67.04
2022-09-21T02:18:14.204Z,66.97
2022-09-21T02:21:03.903Z,66.80
2022-09-21T02:24:22.982Z,66.88
2022-09-21T02:27:52.875Z,66.97
2022-09-21T02:30:41.008Z,66.98
2022-09-21T02:33:32.410Z,66.96
2022-09-21T02:36:31.941Z,66.91
2022-09-21T02:39:39.036Z,66.93
2022-09-21T02:42:31.512Z,66.88
2022-09-21T02:45:22.627Z,66.92
2022-09-21T02:48:18.666Z,66.83
2022-09-21T02:51:10.746Z,66.89
2022-09-21T02:53:57.017Z,66.99
2022-09-21T02:56:42.610Z,66.93
2022-09-21T02:59:28.603Z,66.63
2022-09-21T03:02:14.589Z,66.81
2022-09-21T03:05:00.075Z,66.88
2022-09-21T03:07:45.280Z,67.02
2022-09-21T03:10:30.379Z,66.90
2022-09-21T03:13:15.804Z,66.96
2022-09-21T03:16:07.152Z,66.98
2022-09-21T03:18:52.805Z,66.99
2022-09-21T03:21:43.780Z,66.79
2022-09-21T03:24:45.455Z,66.91
2022-09-21T03:27:30.925Z,67.20
2022-09-21T03:30:16.216Z,67.24
2022-09-21T03:33:01.444Z,67.32
2022-09-21T03:35:50.562Z,67.29
2022-09-21T03:38:36.552Z,67.28
2022-09-21T03:41:22.524Z,67.27
2022-09-21T03:44:07.724Z,67.28
2022-09-21T03:46:53.759Z,67.56
2022-09-21T03:49:38.986Z,67.76
2022-09-21T03:52:24.261Z,67.91
2022-09-21T03:55:10.689Z,66.31
2022-09-21T03:57:56.687Z,65.44
2022-09-21T04:00:42.342Z,63.54
2022-09-21T04:03:27.881Z,62.15
2022-09-21T04:06:13.825Z,62.07
2022-09-21T04:09:00.425Z,62.29
2022-09-21T04:11:46.208Z,61.36
2022-09-21T04:14:31.548Z,63.35
2022-09-21T04:17:17.130Z,63.39
2022-09-21T04:20:02.553Z,64.38
2022-09-21T04:22:48.142Z,64.74
2022-09-21T04:25:33.689Z,65.35
2022-09-21T04:28:19.571Z,65.73
2022-09-21T04:31:05.037Z,66.28
2022-09-21T04:33:55.107Z,66.24
2022-09-21T04:36:40.560Z,66.32
2022-09-21T04:39:26.263Z,66.13
2022-09-21T04:42:11.413Z,66.37
2022-09-21T04:44:56.976Z,65.97
2022-09-21T04:47:42.206Z,66.63
2022-09-21T04:50:28.013Z,66.50
2022-09-21T04:53:21.497Z,66.27
2022-09-21T04:56:08.251Z,66.09
2022-09-21T04:58:53.518Z,66.52
2022-09-21T05:01:39.428Z,66.09
2022-09-21T05:04:24.615Z,65.96
2022-09-21T05:07:09.898Z,65.89
2022-09-21T05:10:04.183Z,66.04
2022-09-21T05:12:50.063Z,65.61
2022-09-21T05:15:38.003Z,65.64
2022-09-21T05:18:23.368Z,65.56
2022-09-21T05:21:11.398Z,65.57
2022-09-21T05:23:57.475Z,65.54
2022-09-21T05:26:42.932Z,65.59
2022-09-21T05:29:28.498Z,65.51
2022-09-21T05:32:17.008Z,65.54
2022-09-21T05:35:28.658Z,65.49
2022-09-21T05:38:18.960Z,65.73
2022-09-21T05:41:05.072Z,65.64
2022-09-21T05:43:50.605Z,65.48
2022-09-21T05:46:52.724Z,65.46
2022-09-21T05:49:49.074Z,65.31
2022-09-21T05:53:15.527Z,65.52
2022-09-21T05:56:08.453Z,65.34
2022-09-21T05:59:22.073Z,65.31
2022-09-21T06:02:23.162Z,65.50
2022-09-21T06:05:13.413Z,65.58
2022-09-21T06:07:58.871Z,65.27
2022-09-21T06:10:44.233Z,65.35
2022-09-21T06:13:29.459Z,65.41
2022-09-21T06:16:14.683Z,65.28
2022-09-21T06:18:59.917Z,65.75
2022-09-21T06:21:45.516Z,65.42
2022-09-21T06:24:30.927Z,65.32
2022-09-21T06:27:16.086Z,65.16
2022-09-21T06:30:01.382Z,65.21
2022-09-21T06:32:46.538Z,65.21
2022-09-21T06:35:33.809Z,65.31
2022-09-21T06:38:19.191Z,65.22
2022-09-21T06:41:05.395Z,65.17
2022-09-21T06:43:55.689Z,65.10
2022-09-21T06:46:41.232Z,65.43
2022-09-21T06:49:28.762Z,65.10
2022-09-21T06:52:14.255Z,65.46
2022-09-21T06:54:59.389Z,65.31
2022-09-21T06:57:44.976Z,65.19
2022-09-21T07:00:31.612Z,65.20
2022-09-21T07:03:16.858Z,65.02
2022-09-21T07:06:02.707Z,65.13
2022-09-21T07:11:54.562Z,65.44
2022-09-21T07:14:39.872Z,65.00
2022-09-21T07:17:25.214Z,65.23
2022-09-21T07:20:11.039Z,65.21
2022-09-21T07:22:57.685Z,65.08
2022-09-21T07:25:44.097Z,64.88
2022-09-21T07:28:30.177Z,65.11
2022-09-21T07:31:16.789Z,65.24
2022-09-21T07:34:02.222Z,65.25
2022-09-21T07:36:47.474Z,65.09
2022-09-21T07:39:32.761Z,65.35
2022-09-21T07:42:20.093Z,65.25
2022-09-21T07:45:06.128Z,65.30
2022-09-21T07:47:54.229Z,65.07
2022-09-21T07:50:39.827Z,65.24
2022-09-21T07:53:25.138Z,65.34
2022-09-21T07:56:16.726Z,65.18
2022-09-21T07:59:07.833Z,65.40
2022-09-21T08:01:53.230Z,65.15
2022-09-21T08:04:38.722Z,65.20
2022-09-21T08:07:23.978Z,65.10
2022-09-21T08:10:09.981Z,65.12
2022-09-21T08:12:56.247Z,65.08
2022-09-21T08:15:49.737Z,65.04
2022-09-21T08:18:40.354Z,65.13
2022-09-21T08:21:25.647Z,65.06
2022-09-21T08:24:11.189Z,65.22
2022-09-21T08:26:57.831Z,65.09
2022-09-21T08:29:43.811Z,65.10
2022-09-21T08:32:50.073Z,65.12
2022-09-21T08:35:37.010Z,64.93
2022-09-21T08:38:22.810Z,64.99
2022-09-21T08:41:19.478Z,64.86
2022-09-21T08:44:21.543Z,65.10
2022-09-21T08:47:19.395Z,64.93
2022-09-21T08:50:12.463Z,65.02
2022-09-21T08:53:13.559Z,65.09
2022-09-21T08:55:59.641Z,64.95
2022-09-21T08:58:44.863Z,65.20
2022-09-21T09:02:14.830Z,65.11
2022-09-21T09:05:23.209Z,64.92
2022-09-21T09:08:39.439Z,64.99
2022-09-21T09:11:32.183Z,64.97
2022-09-21T09:14:42.668Z,64.93
2022-09-21T09:17:53.509Z,65.04
2022-09-21T09:21:03.753Z,65.09
2022-09-21T09:24:04.486Z,64.80
2022-09-21T09:27:02.778Z,64.93
2022-09-21T09:30:02.907Z,64.93
2022-09-21T09:32:58.582Z,64.96
2022-09-21T09:35:51.006Z,64.83
2022-09-21T09:38:40.738Z,65.01
2022-09-21T09:41:55.239Z,64.94
2022-09-21T09:44:55.641Z,64.83
2022-09-21T09:48:02.632Z,64.94
2022-09-21T09:50:47.821Z,64.88
2022-09-21T09:53:33.988Z,64.96
2022-09-21T09:56:19.619Z,64.69
2022-09-21T09:59:10.726Z,64.98
2022-09-21T10:02:01.108Z,64.93
2022-09-21T10:05:06.220Z,64.88
2022-09-21T10:07:53.081Z,64.91
2022-09-21T10:10:41.521Z,64.92
2022-09-21T10:13:29.237Z,64.74
2022-09-21T10:16:20.469Z,64.58
2022-09-21T10:19:05.918Z,64.83
2022-09-21T10:22:02.072Z,64.97
2022-09-21T10:24:53.148Z,64.87
2022-09-21T10:27:45.105Z,64.99
2022-09-21T10:30:30.557Z,64.88
2022-09-21T10:33:22.200Z,64.80
2022-09-21T10:36:25.554Z,64.80
2022-09-21T10:39:21.929Z,65.07
2022-09-21T10:42:16.369Z,64.78
2022-09-21T10:45:16.516Z,64.92
2022-09-21T10:48:16.620Z,64.91
2022-09-21T10:51:03.432Z,64.92
2022-09-21T10:53:53.761Z,64.82
2022-09-21T10:56:54.646Z,64.68
2022-09-21T10:59:40.305Z,64.61
2022-09-21T11:02:31.573Z,64.87
2022-09-21T11:05:28.533Z,64.87
2022-09-21T11:08:38.352Z,64.91
2022-09-21T11:11:37.711Z,64.80
2022-09-21T11:14:45.376Z,65.02
2022-09-21T11:18:14.592Z,64.89
2022-09-21T11:21:09.501Z,64.95
2022-09-21T11:24:19.724Z,64.89
2022-09-21T11:27:27.330Z,64.76
2022-09-21T11:30:15.409Z,65.00
2022-09-21T11:33:15.474Z,65.00
2022-09-21T11:36:24.073Z,65.11
2022-09-21T11:39:24.763Z,64.94
2022-09-21T11:42:16.587Z,65.02
2022-09-21T11:45:07.834Z,65.02
2022-09-21T11:48:32.281Z,64.98
2022-09-21T11:51:24.148Z,64.97
2022-09-21T11:54:38.019Z,64.79
2022-09-21T11:57:29.616Z,64.87
2022-09-21T12:00:20.345Z,64.90
2022-09-21T12:03:14.607Z,64.88
2022-09-21T12:06:38.105Z,64.86
2022-09-21T12:09:49.510Z,64.86
2022-09-21T12:13:00.826Z,64.50
2022-09-21T12:16:03.001Z,64.57
2022-09-21T12:19:12.341Z,64.74
2022-09-21T12:22:09.792Z,65.00
2022-09-21T12:25:04.457Z,65.02
2022-09-21T12:27:57.076Z,65.16
2022-09-21T12:30:47.739Z,65.08
2022-09-21T12:33:43.262Z,65.01
2022-09-21T12:36:39.584Z,64.80
2022-09-21T12:39:32.778Z,64.62
2022-09-21T12:42:30.633Z,64.56
2022-09-21T12:45:25.828Z,64.28
2022-09-21T12:48:17.107Z,64.34
2022-09-21T12:51:25.762Z,63.26
2022-09-21T12:54:26.075Z,63.82
2022-09-21T12:58:04.800Z,64.15
2022-09-21T13:01:20.759Z,63.87
2022-09-21T13:04:31.426Z,63.51
2022-09-21T13:07:33.404Z,63.07
2022-09-21T13:10:28.612Z,63.41
2022-09-21T13:13:26.359Z,63.08
2022-09-21T13:16:35.442Z,63.59
2022-09-21T13:19:26.786Z,63.48
2022-09-21T13:22:25.818Z,63.52
2022-09-21T13:25:24.703Z,63.60
2022-09-21T13:28:13.576Z,63.25
2022-09-21T13:31:39.799Z,62.92
2022-09-21T13:34:28.565Z,62.95
2022-09-21T13:37:20.345Z,62.99
2022-09-21T13:40:05.686Z,62.99
2022-09-21T13:42:50.852Z,63.24
2022-09-21T13:45:36.045Z,63.48
2022-09-21T13:48:29.524Z,63.48
2022-09-21T13:51:16.173Z,63.63
2022-09-21T13:54:03.954Z,63.58
2022-09-21T13:57:00.585Z,63.57
2022-09-21T13:59:49.306Z,63.47
2022-09-21T14:03:04.548Z,63.65
2022-09-21T14:05:54.610Z,63.56
2022-09-21T14:08:50.459Z,63.51
2022-09-21T14:11:39.085Z,63.56
2022-09-21T14:14:30.686Z,63.63
2022-09-21T14:17:37.633Z,63.52
2022-09-21T14:20:32.692Z,63.56
2022-09-21T14:23:23.162Z,63.69
2022-09-21T14:26:35.045Z,63.51
2022-09-21T14:29:48.562Z,63.75
2022-09-21T14:32:41.431Z,63.81
2022-09-21T14:35:33.761Z,63.59
2022-09-21T14:38:25.249Z,63.77
2022-09-21T14:41:19.971Z,64.05
2022-09-21T14:44:06.263Z,63.78
2022-09-21T14:47:00.706Z,63.79
2022-09-21T14:50:23.948Z,63.73
2022-09-21T14:53:32.734Z,63.90
2022-09-21T14:56:30.415Z,63.96
2022-09-21T14:59:30.121Z,64.06
2022-09-21T15:02:25.358Z,64.10
2022-09-21T15:05:29.467Z,63.96
2022-09-21T15:09:09.216Z,64.16
2022-09-21T15:12:09.889Z,64.72
2022-09-21T15:15:23.215Z,64.68
2022-09-21T15:18:21.218Z,64.77
2022-09-21T15:21:21.980Z,64.87
2022-09-21T15:24:35.608Z,64.78
2022-09-21T15:27:23.084Z,64.94
2022-09-21T15:30:20.790Z,64.62
2022-09-21T15:33:06.418Z,64.70
2022-09-21T15:35:54.582Z,64.96
2022-09-21T15:38:40.280Z,65.50
2022-09-21T15:41:46.014Z,65.54
2022-09-21T15:44:37.509Z,65.65
2022-09-21T15:47:26.269Z,65.84
2022-09-21T15:50:14.162Z,66.05
2022-09-21T15:53:05.774Z,65.96
2022-09-21T15:55:52.343Z,66.17
2022-09-21T15:58:40.514Z,66.23
2022-09-21T16:01:25.976Z,66.28
2022-09-21T16:04:16.236Z,66.08
2022-09-21T16:07:31.517Z,66.06
2022-09-21T16:10:40.281Z,66.09
2022-09-21T16:13:44.490Z,65.98
2022-09-21T16:16:29.809Z,66.02
2022-09-21T16:19:16.425Z,66.10
2022-09-21T16:22:05.449Z,65.74
2022-09-21T16:24:57.481Z,65.94
2022-09-21T16:28:01.243Z,66.13
2022-09-21T16:30:51.810Z,65.92
2022-09-21T16:33:41.316Z,66.13
2022-09-21T16:36:32.429Z,65.82
2022-09-21T16:39:18.953Z,65.86
2022-09-21T16:42:05.516Z,65.66
2022-09-21T16:44:51.302Z,66.26
2022-09-21T16:47:37.774Z,65.40
2022-09-21T16:50:24.649Z,65.38
2022-09-21T16:53:10.465Z,65.22
2022-09-21T16:55:56.315Z,65.24
2022-09-21T16:58:45.180Z,64.96
2022-09-21T17:01:30.733Z,65.46
2022-09-21T17:04:17.053Z,65.55
2022-09-21T17:07:05.398Z,65.45
2022-09-21T17:09:51.300Z,65.39
2022-09-21T17:12:38.259Z,65.35
2022-09-21T17:15:25.304Z,65.49
2022-09-21T17:18:12.848Z,65.48
2022-09-21T17:20:58.752Z,65.58
2022-09-21T17:23:44.056Z,65.56
2022-09-21T17:26:29.512Z,65.76
2022-09-21T17:29:28.038Z,65.59
2022-09-21T17:32:14.716Z,65.49
2022-09-21T17:35:28.804Z,65.68
2022-09-21T17:38:14.804Z,65.56
2022-09-21T17:41:04.696Z,65.43
2022-09-21T17:43:58.635Z,65.13
2022-09-21T17:47:09.506Z,65.04
2022-09-21T17:49:59.090Z,64.93
2022-09-21T17:53:03.919Z,65.03
2022-09-21T17:55:58.157Z,65.00
2022-09-21T17:59:03.441Z,65.01
2022-09-21T18:01:49.023Z,64.92
2022-09-21T18:04:35.388Z,64.90
2022-09-21T18:07:21.341Z,64.92
2022-09-21T18:10:07.551Z,64.87
2022-09-21T18:13:15.822Z,64.92
2022-09-21T18:16:19.937Z,64.94
2022-09-21T18:19:05.347Z,64.80
2022-09-21T18:21:57.143Z,64.69
2022-09-21T18:24:43.911Z,64.81
2022-09-21T18:27:29.634Z,64.81
2022-09-21T18:30:16.834Z,64.89
2022-09-21T18:33:16.027Z,64.83
2022-09-21T18:36:24.688Z,64.61
2022-09-21T18:39:28.119Z,64.81
2022-09-21T18:42:50.951Z,64.88
2022-09-21T18:45:44.198Z,64.94
2022-09-21T18:49:01.798Z,64.78
2022-09-21T18:51:58.926Z,64.78
2022-09-21T18:54:45.082Z,64.96
2022-09-21T18:57:32.523Z,65.03
2022-09-21T19:00:18.626Z,64.99
2022-09-21T19:03:23.644Z,65.04
2022-09-21T19:06:27.420Z,64.95
2022-09-21T19:09:22.063Z,65.05
2022-09-21T19:12:32.051Z,65.25
2022-09-21T19:16:00.383Z,65.12
2022-09-21T19:18:59.947Z,65.14
2022-09-21T19:21:58.492Z,65.16
2022-09-21T19:24:57.169Z,65.03
2022-09-21T19:28:28.982Z,65.07
2022-09-21T19:31:20.379Z,65.23
2022-09-21T19:34:23.907Z,65.27
2022-09-21T19:37:09.446Z,65.26
2022-09-21T19:39:55.348Z,65.55
2022-09-21T19:43:20.808Z,65.31
2022-09-21T19:46:09.179Z,65.37
2022-09-21T19:49:01.505Z,65.32
2022-09-21T19:51:49.111Z,65.42
2022-09-21T19:54:53.908Z,65.37
2022-09-21T19:57:58.526Z,65.59
2022-09-21T20:00:45.533Z,65.55
2022-09-21T20:03:39.455Z,66.56
2022-09-21T20:06:38.856Z,66.19
2022-09-21T20:09:29.685Z,66.39
2022-09-21T20:12:49.180Z,66.48
2022-09-21T20:15:41.597Z,66.45
2022-09-21T20:18:40.729Z,66.67
2022-09-21T20:21:38.378Z,66.65
2022-09-21T20:24:42.197Z,66.43
2022-09-21T20:27:27.780Z,66.60
2022-09-21T20:30:15.506Z,66.45
2022-09-21T20:33:07.366Z,66.47
2022-09-21T20:35:55.429Z,66.91
2022-09-21T20:38:44.219Z,66.35
2022-09-21T20:41:30.183Z,66.40
2022-09-21T20:44:15.837Z,66.17
2022-09-21T20:47:01.090Z,66.25
2022-09-21T20:49:47.687Z,66.19
2022-09-21T20:52:34.710Z,65.60
2022-09-21T20:55:20.494Z,65.19
2022-09-21T20:58:05.781Z,64.21
2022-09-21T21:00:56.414Z,64.49
2022-09-21T21:03:43.985Z,64.56
2022-09-21T21:06:34.072Z,64.60
2022-09-21T21:09:19.741Z,64.94
2022-09-21T21:12:05.195Z,64.64
2022-09-21T21:14:51.264Z,64.53
2022-09-21T21:17:36.770Z,64.78
2022-09-21T21:20:22.296Z,64.61
2022-09-21T21:23:08.321Z,64.75
2022-09-21T21:25:54.035Z,64.70
2022-09-21T21:28:39.245Z,64.69
2022-09-21T21:31:25.123Z,64.77
2022-09-21T21:34:10.879Z,64.91
2022-09-21T21:36:56.587Z,64.78
2022-09-21T21:39:42.608Z,64.71
2022-09-21T21:42:29.523Z,64.81
2022-09-21T21:45:15.260Z,64.93
2022-09-21T21:48:02.404Z,65.02
2022-09-21T21:50:47.881Z,64.98
2022-09-21T21:53:35.545Z,65.15
2022-09-21T21:56:22.741Z,65.07
2022-09-21T21:59:07.950Z,65.22
2022-09-21T22:01:54.613Z,65.27
2022-09-21T22:04:40.409Z,65.44
2022-09-21T22:07:25.790Z,65.17
2022-09-21T22:10:11.053Z,65.25
2022-09-21T22:12:57.370Z,65.29
2022-09-21T22:15:42.728Z,65.42
2022-09-21T22:18:27.971Z,65.38
2022-09-21T22:21:16.087Z,65.26
2022-09-21T22:24:05.125Z,65.47
2022-09-21T22:26:50.684Z,65.47
2022-09-21T22:29:35.979Z,65.36
2022-09-21T22:32:21.221Z,65.32
2022-09-21T22:35:06.733Z,65.50
2022-09-21T22:37:52.800Z,65.43
2022-09-21T22:40:38.119Z,65.32
2022-09-21T22:43:23.683Z,65.35
2022-09-21T22:46:09.294Z,65.30
2022-09-21T22:48:55.224Z,65.54
2022-09-21T22:51:40.573Z,65.16
2022-09-21T22:54:27.684Z,65.41
2022-09-21T22:57:13.130Z,65.48
2022-09-21T22:59:58.446Z,65.62
2022-09-21T23:02:44.866Z,65.59
2022-09-21T23:05:30.088Z,65.62
2022-09-21T23:08:15.722Z,65.54
2022-09-21T23:11:37.784Z,65.45
2022-09-21T23:14:23.541Z,65.62
2022-09-21T23:17:08.942Z,65.43
2022-09-21T23:19:54.139Z,65.63
2022-09-21T23:22:39.534Z,65.67
2022-09-21T23:25:25.189Z,65.57
2022-09-21T23:28:10.500Z,65.59
2022-09-21T23:30:57.773Z,65.54
2022-09-21T23:33:46.156Z,65.60
2022-09-21T23:36:32.253Z,65.78
2022-09-21T23:39:17.476Z,65.72
2022-09-21T23:42:02.771Z,65.66
2022-09-21T23:44:48.084Z,65.83
2022-09-21T23:47:33.469Z,65.96
2022-09-21T23:50:18.754Z,65.86
2022-09-21T23:53:04.042Z,65.77
2022-09-21T23:55:49.642Z,65.81
2022-09-21T23:58:35.602Z,65.93
